createdAt,value
2018-03-03T00:01:10.312Z,92.32
2018-03-03T00:03:37.856Z,92.54
2018-03-03T00:06:06.359Z,92.85
2018-03-03T00:08:33.934Z,92.71
2018-03-03T00:11:01.481Z,92.64
2018-03-03T00:13:29.049Z,92.47
2018-03-03T00:15:56.642Z,93.37
2018-03-03T00:18:24.196Z,93.28
2018-03-03T00:20:51.751Z,93.39
2018-03-03T00:23:19.323Z,93.32
2018-03-03T00:25:46.875Z,93.92
2018-03-03T00:28:14.439Z,93.39
2018-03-03T00:30:42.046Z,93.36
2018-03-03T00:33:09.599Z,93.19
2018-03-03T00:35:37.162Z,93.05
2018-03-03T00:38:04.868Z,93.01
2018-03-03T00:40:32.429Z,92.95
2018-03-03T00:42:59.981Z,92.88
2018-03-03T00:45:27.882Z,93.24
2018-03-03T00:47:55.443Z,93.61
2018-03-03T00:50:23.001Z,94.36
2018-03-03T00:52:50.595Z,94.26
2018-03-03T00:55:18.156Z,94.16
2018-03-03T00:57:45.713Z,94.03
2018-03-03T01:00:13.477Z,93.98
2018-03-03T01:02:41.024Z,93.96
2018-03-03T01:05:08.569Z,94.02
2018-03-03T01:07:36.316Z,94.16
2018-03-03T01:10:03.897Z,94.12
2018-03-03T01:12:31.447Z,94.24
2018-03-03T01:14:59.044Z,94.21
2018-03-03T01:17:26.588Z,94.17
2018-03-03T01:19:54.129Z,94.10
2018-03-03T01:22:21.703Z,94.32
2018-03-03T01:24:49.253Z,94.25
2018-03-03T01:27:16.831Z,94.10
2018-03-03T01:29:44.427Z,94.24
2018-03-03T01:32:11.985Z,94.12
2018-03-03T01:34:39.560Z,94.05
2018-03-03T01:37:07.150Z,93.97
2018-03-03T01:39:34.700Z,94.02
2018-03-03T01:42:02.250Z,94.15
2018-03-03T01:44:29.991Z,93.90
2018-03-03T01:46:57.541Z,93.50
2018-03-03T01:49:25.119Z,93.42
2018-03-03T01:51:53.681Z,93.55
2018-03-03T01:54:21.235Z,93.59
2018-03-03T01:56:48.774Z,93.21
2018-03-03T01:59:16.509Z,92.77
2018-03-03T02:01:44.080Z,92.60
2018-03-03T02:04:11.617Z,92.18
2018-03-03T02:06:39.149Z,92.08
2018-03-03T02:09:06.694Z,92.14
2018-03-03T02:11:34.277Z,91.60
2018-03-03T02:14:01.824Z,91.83
2018-03-03T02:16:29.353Z,91.39
2018-03-03T02:18:56.952Z,91.11
2018-03-03T02:21:24.493Z,90.51
2018-03-03T02:23:52.027Z,90.23
2018-03-03T02:26:19.605Z,89.79
2018-03-03T02:28:47.160Z,89.74
2018-03-03T02:31:14.712Z,89.47
2018-03-03T02:33:42.433Z,89.39
2018-03-03T02:36:09.984Z,89.10
2018-03-03T02:38:37.529Z,88.61
2018-03-03T02:41:05.105Z,88.16
2018-03-03T02:43:32.637Z,86.34
2018-03-03T02:46:00.192Z,86.48
2018-03-03T02:48:27.935Z,85.61
2018-03-03T02:50:55.480Z,85.05
2018-03-03T02:53:23.016Z,84.40
2018-03-03T02:55:50.583Z,84.52
2018-03-03T02:58:18.127Z,83.25
2018-03-03T03:00:45.680Z,83.63
2018-03-03T03:03:13.355Z,83.10
2018-03-03T03:05:40.909Z,82.23
2018-03-03T03:08:08.450Z,82.01
2018-03-03T03:10:36.179Z,80.74
2018-03-03T03:13:03.722Z,81.12
2018-03-03T03:15:31.273Z,80.80
2018-03-03T03:17:58.845Z,80.13
2018-03-03T03:20:26.390Z,78.33
2018-03-03T03:22:53.958Z,78.87
2018-03-03T03:25:21.629Z,78.81
2018-03-03T03:27:49.213Z,79.04
2018-03-03T03:30:16.776Z,77.95
2018-03-03T03:32:44.753Z,77.60
2018-03-03T03:35:12.344Z,75.45
2018-03-03T03:37:39.856Z,76.59
2018-03-03T03:40:07.434Z,74.25
2018-03-03T03:42:34.990Z,75.25
2018-03-03T03:45:02.538Z,74.84
2018-03-03T03:47:30.131Z,75.23
2018-03-03T03:49:57.689Z,73.44
2018-03-03T03:52:25.255Z,73.73
2018-03-03T03:54:52.831Z,73.02
2018-03-03T03:57:20.370Z,74.09
2018-03-03T03:59:47.918Z,73.37
2018-03-03T04:02:15.498Z,72.87
2018-03-03T04:04:43.036Z,73.52
2018-03-03T04:07:10.586Z,72.78
2018-03-03T04:09:38.259Z,71.61
2018-03-03T04:12:05.817Z,71.97
2018-03-03T04:14:33.349Z,72.10
2018-03-03T04:17:01.079Z,72.82
2018-03-03T04:19:28.618Z,71.66
2018-03-03T04:21:56.207Z,71.79
2018-03-03T04:24:23.813Z,71.57
2018-03-03T04:26:51.373Z,70.93
2018-03-03T04:29:18.938Z,70.74
2018-03-03T04:31:46.534Z,70.85
2018-03-03T04:34:14.071Z,69.98
2018-03-03T04:36:41.635Z,70.34
2018-03-03T04:39:09.206Z,69.60
2018-03-03T04:41:36.754Z,69.66
2018-03-03T04:44:04.288Z,69.88
2018-03-03T04:46:32.174Z,68.81
2018-03-03T04:48:59.740Z,69.72
2018-03-03T04:51:27.323Z,68.13
2018-03-03T04:53:55.071Z,69.09
2018-03-03T04:56:22.638Z,68.48
2018-03-03T04:58:55.773Z,68.38
2018-03-03T05:01:23.382Z,67.44
2018-03-03T05:04:05.798Z,67.19
2018-03-03T05:06:38.808Z,68.35
2018-03-03T05:09:06.369Z,68.14
2018-03-03T05:11:33.943Z,66.22
2018-03-03T05:14:06.955Z,65.95
2018-03-03T05:16:40.160Z,66.69
2018-03-03T05:19:13.581Z,66.56
2018-03-03T05:27:54.714Z,65.87
2018-03-03T05:30:27.913Z,66.19
2018-03-03T05:33:01.017Z,66.32
2018-03-03T05:35:34.062Z,66.73
2018-03-03T05:38:07.095Z,65.97
2018-03-03T05:40:40.134Z,66.23
2018-03-03T05:43:13.237Z,66.02
2018-03-03T05:45:46.266Z,65.96
2018-03-03T05:51:36.146Z,65.75
2018-03-03T05:54:05.498Z,66.60
2018-03-03T05:56:50.987Z,67.14
2018-03-03T05:59:24.016Z,66.57
2018-03-03T06:05:01.846Z,66.49
2018-03-03T06:07:41.319Z,65.51
2018-03-03T06:10:08.901Z,65.50
2018-03-03T06:12:36.441Z,66.51
2018-03-03T06:15:04.186Z,66.74
2018-03-03T06:17:31.722Z,66.99
2018-03-03T06:19:59.290Z,65.82
2018-03-03T06:22:27.042Z,66.93
2018-03-03T06:24:54.571Z,65.28
2018-03-03T06:27:22.985Z,65.83
2018-03-03T06:29:50.866Z,66.25
2018-03-03T06:32:18.454Z,65.40
2018-03-03T06:34:45.985Z,65.88
2018-03-03T06:37:13.937Z,64.95
2018-03-03T06:39:41.473Z,64.67
2018-03-03T06:42:09.007Z,65.87
2018-03-03T06:44:36.638Z,66.62
2018-03-03T06:47:04.177Z,66.22
2018-03-03T06:49:31.717Z,66.23
2018-03-03T06:51:59.299Z,66.55
2018-03-03T06:54:26.831Z,66.57
2018-03-03T06:56:54.372Z,65.45
2018-03-03T06:59:21.958Z,64.54
2018-03-03T07:01:49.492Z,63.64
2018-03-03T07:04:17.036Z,60.36
2018-03-03T07:06:44.578Z,59.67
2018-03-03T07:09:12.147Z,60.59
2018-03-03T07:11:39.740Z,59.70
2018-03-03T07:14:07.320Z,58.81
2018-03-03T07:16:34.887Z,60.03
2018-03-03T07:19:02.616Z,59.35
2018-03-03T07:21:30.162Z,59.15
2018-03-03T07:23:57.703Z,59.39
2018-03-03T07:26:25.277Z,58.03
2018-03-03T07:28:52.823Z,58.51
2018-03-03T07:31:20.367Z,57.75
2018-03-03T07:33:48.184Z,58.60
2018-03-03T07:36:15.730Z,57.53
2018-03-03T07:38:43.268Z,57.94
2018-03-03T07:41:11.001Z,57.32
2018-03-03T07:43:38.540Z,57.64
2018-03-03T07:46:06.074Z,57.21
2018-03-03T07:48:33.781Z,56.45
2018-03-03T07:51:01.349Z,56.96
2018-03-03T07:53:28.886Z,56.11
2018-03-03T07:55:56.571Z,54.70
2018-03-03T07:58:35.854Z,55.95
2018-03-03T08:01:04.246Z,55.23
2018-03-03T08:03:31.806Z,56.95
2018-03-03T08:05:59.378Z,55.16
2018-03-03T08:08:27.146Z,55.29
2018-03-03T08:10:54.686Z,53.25
2018-03-03T08:13:22.218Z,53.68
2018-03-03T08:15:49.787Z,54.82
2018-03-03T08:18:17.343Z,54.58
2018-03-03T08:20:44.888Z,54.40
2018-03-03T08:23:12.475Z,57.09
2018-03-03T08:25:40.019Z,56.22
2018-03-03T08:28:07.565Z,54.99
2018-03-03T08:30:35.157Z,55.33
2018-03-03T08:33:02.889Z,54.72
2018-03-03T08:35:30.425Z,55.26
2018-03-03T08:37:58.034Z,54.54
2018-03-03T08:40:25.583Z,53.84
2018-03-03T08:42:53.129Z,54.38
2018-03-03T08:45:21.495Z,56.14
2018-03-03T08:47:49.034Z,54.40
2018-03-03T08:50:16.578Z,56.84
2018-03-03T08:52:44.157Z,56.77
2018-03-03T08:55:11.700Z,54.92
2018-03-03T08:57:39.290Z,54.34
2018-03-03T09:00:07.002Z,53.36
2018-03-03T09:02:34.543Z,54.88
2018-03-03T09:05:02.093Z,52.69
2018-03-03T09:07:29.641Z,54.18
2018-03-03T09:09:57.184Z,53.15
2018-03-03T09:12:24.772Z,54.33
2018-03-03T09:14:52.320Z,54.06
2018-03-03T09:17:19.859Z,53.64
2018-03-03T09:19:47.615Z,53.25
2018-03-03T09:22:15.156Z,55.35
2018-03-03T09:24:42.702Z,53.04
2018-03-03T09:27:10.298Z,53.10
2018-03-03T09:29:37.860Z,51.92
2018-03-03T09:32:05.406Z,52.73
2018-03-03T09:34:33.171Z,51.31
2018-03-03T09:37:00.727Z,51.58
2018-03-03T09:39:28.280Z,50.80
2018-03-03T09:41:56.227Z,49.36
2018-03-03T09:44:23.794Z,51.21
2018-03-03T09:46:51.350Z,49.87
2018-03-03T09:49:19.184Z,50.06
2018-03-03T09:51:46.746Z,49.42
2018-03-03T09:54:14.295Z,48.59
2018-03-03T09:56:42.203Z,48.05
2018-03-03T09:59:09.744Z,48.61
2018-03-03T10:01:43.359Z,47.49
2018-03-03T10:04:05.907Z,48.02
2018-03-03T10:06:33.455Z,46.49
2018-03-03T10:09:01.018Z,48.65
2018-03-03T10:11:28.639Z,47.81
2018-03-03T10:13:56.197Z,50.58
2018-03-03T10:16:23.749Z,46.63
2018-03-03T10:18:51.757Z,45.70
2018-03-03T10:21:19.374Z,45.62
2018-03-03T10:23:46.944Z,48.33
2018-03-03T10:26:14.688Z,45.72
2018-03-03T10:28:42.245Z,46.15
2018-03-03T10:31:09.785Z,44.28
2018-03-03T10:33:37.371Z,44.68
2018-03-03T10:36:04.956Z,44.31
2018-03-03T10:38:33.103Z,45.19
2018-03-03T10:41:00.832Z,45.53
2018-03-03T10:43:28.389Z,44.09
2018-03-03T10:45:55.984Z,44.98
2018-03-03T10:48:23.578Z,43.63
2018-03-03T10:50:51.145Z,45.50
2018-03-03T10:53:18.689Z,45.42
2018-03-03T10:55:46.443Z,48.06
2018-03-03T10:58:14.021Z,45.95
2018-03-03T11:00:41.589Z,47.17
2018-03-03T11:03:09.188Z,44.82
2018-03-03T11:05:36.752Z,47.33
2018-03-03T11:08:04.298Z,47.59
2018-03-03T11:10:31.890Z,44.95
2018-03-03T11:12:59.442Z,45.13
2018-03-03T11:15:27.011Z,45.62
2018-03-03T11:17:54.611Z,48.55
2018-03-03T11:20:22.158Z,46.32
2018-03-03T11:22:49.708Z,48.62
2018-03-03T11:25:17.278Z,44.68
2018-03-03T11:27:44.838Z,49.16
2018-03-03T11:30:12.385Z,48.31
2018-03-03T11:32:39.963Z,51.17
2018-03-03T11:35:07.512Z,48.16
2018-03-03T11:37:35.063Z,48.56
2018-03-03T11:40:02.796Z,50.35
2018-03-03T11:42:30.355Z,50.27
2018-03-03T11:44:57.898Z,48.45
2018-03-03T11:47:25.661Z,47.29
2018-03-03T11:49:53.214Z,47.01
2018-03-03T11:52:20.750Z,46.48
2018-03-03T11:54:48.365Z,48.27
2018-03-03T11:57:15.928Z,47.72
2018-03-03T11:59:43.475Z,48.12
2018-03-03T12:02:11.182Z,47.23
2018-03-03T12:04:38.726Z,48.59
2018-03-03T12:07:06.299Z,47.76
2018-03-03T12:09:33.886Z,47.59
2018-03-03T12:12:01.433Z,47.77
2018-03-03T12:14:28.983Z,46.16
2018-03-03T12:16:56.656Z,47.59
2018-03-03T12:19:24.188Z,43.07
2018-03-03T12:21:51.744Z,45.64
2018-03-03T12:24:19.467Z,47.41
2018-03-03T12:26:47.021Z,46.08
2018-03-03T12:29:14.567Z,45.95
2018-03-03T12:31:42.161Z,46.11
2018-03-03T12:34:09.698Z,46.37
2018-03-03T12:36:37.251Z,49.16
2018-03-03T12:39:05.057Z,46.87
2018-03-03T12:41:32.644Z,46.90
2018-03-03T12:44:00.193Z,46.34
2018-03-03T12:46:27.871Z,49.95
2018-03-03T12:48:55.419Z,47.47
2018-03-03T12:51:22.946Z,48.64
2018-03-03T12:53:50.510Z,48.54
2018-03-03T12:56:18.052Z,47.76
2018-03-03T12:58:45.652Z,47.14
2018-03-03T13:01:13.297Z,47.61
2018-03-03T13:03:40.848Z,47.24
2018-03-03T13:06:08.397Z,47.79
2018-03-03T13:08:35.970Z,47.16
2018-03-03T13:11:03.502Z,47.38
2018-03-03T13:13:31.037Z,45.24
2018-03-03T13:15:58.729Z,47.08
2018-03-03T13:18:26.295Z,47.31
2018-03-03T13:20:53.870Z,46.21
2018-03-03T13:23:21.518Z,47.65
2018-03-03T13:25:49.058Z,46.36
2018-03-03T13:28:16.605Z,49.26
2018-03-03T13:30:44.197Z,45.88
2018-03-03T13:33:11.739Z,45.97
2018-03-03T13:35:39.288Z,44.23
2018-03-03T13:38:06.883Z,44.43
2018-03-03T13:40:34.442Z,49.75
2018-03-03T13:43:01.984Z,46.55
2018-03-03T13:45:29.610Z,44.50
2018-03-03T13:47:57.150Z,47.45
2018-03-03T13:50:24.743Z,47.05
2018-03-03T13:52:52.469Z,47.83
2018-03-03T13:55:20.039Z,47.85
2018-03-03T13:57:47.579Z,48.67
2018-03-03T14:00:15.319Z,51.51
2018-03-03T14:02:42.866Z,48.08
2018-03-03T14:05:10.415Z,48.79
2018-03-03T14:07:37.953Z,48.16
2018-03-03T14:10:05.499Z,49.14
2018-03-03T14:12:33.103Z,48.79
2018-03-03T14:15:00.638Z,50.18
2018-03-03T14:17:28.221Z,50.94
2018-03-03T14:19:55.766Z,49.28
2018-03-03T14:22:23.345Z,48.87
2018-03-03T14:24:50.901Z,49.41
2018-03-03T14:27:18.769Z,50.12
2018-03-03T14:29:46.313Z,52.28
2018-03-03T14:32:13.850Z,48.96
2018-03-03T14:34:41.442Z,50.87
2018-03-03T14:37:08.985Z,52.46
2018-03-03T14:39:37.382Z,54.60
2018-03-03T14:42:05.028Z,52.66
2018-03-03T14:44:32.610Z,52.98
2018-03-03T14:47:00.173Z,56.44
2018-03-03T14:49:27.927Z,53.33
2018-03-03T14:51:55.482Z,50.61
2018-03-03T14:54:23.026Z,51.96
2018-03-03T14:56:50.610Z,50.52
2018-03-03T14:59:18.158Z,51.06
2018-03-03T15:01:45.715Z,52.17
2018-03-03T15:04:13.407Z,49.79
2018-03-03T15:06:40.954Z,50.74
2018-03-03T15:09:08.499Z,51.59
2018-03-03T15:11:36.120Z,52.19
2018-03-03T15:14:03.694Z,54.65
2018-03-03T15:16:31.246Z,53.98
2018-03-03T15:18:58.929Z,52.55
2018-03-03T15:21:26.467Z,51.69
2018-03-03T15:23:54.016Z,51.58
2018-03-03T15:26:21.836Z,52.88
2018-03-03T15:28:49.396Z,50.33
2018-03-03T15:31:16.944Z,52.24
2018-03-03T15:33:44.598Z,55.94
2018-03-03T15:36:12.167Z,54.56
2018-03-03T15:38:39.727Z,52.65
2018-03-03T15:41:07.462Z,55.44
2018-03-03T15:43:34.997Z,55.54
2018-03-03T15:46:02.537Z,56.32
2018-03-03T15:48:30.131Z,52.79
2018-03-03T15:50:57.679Z,52.04
2018-03-03T15:53:25.235Z,51.47
2018-03-03T15:55:53.120Z,53.29
2018-03-03T15:58:20.684Z,51.91
2018-03-03T16:00:48.287Z,52.14
2018-03-03T16:03:15.974Z,54.97
2018-03-03T16:05:43.574Z,56.15
2018-03-03T16:08:11.118Z,55.17
2018-03-03T16:10:38.871Z,54.42
2018-03-03T16:13:06.415Z,56.79
2018-03-03T16:15:33.971Z,54.60
2018-03-03T16:18:01.591Z,56.80
2018-03-03T16:20:29.154Z,55.10
2018-03-03T16:22:56.694Z,60.65
2018-03-03T16:25:24.404Z,57.35
2018-03-03T16:27:52.200Z,59.64
2018-03-03T16:30:19.778Z,60.84
2018-03-03T16:32:47.669Z,63.54
2018-03-03T16:35:15.213Z,57.19
2018-03-03T16:37:42.780Z,56.09
2018-03-03T16:40:10.362Z,55.61
2018-03-03T16:42:37.976Z,61.85
2018-03-03T16:45:05.530Z,61.92
2018-03-03T16:47:33.274Z,58.03
2018-03-03T16:50:00.813Z,56.41
2018-03-03T16:52:28.389Z,59.27
2018-03-03T16:54:56.101Z,60.71
2018-03-03T16:57:23.652Z,59.29
2018-03-03T16:59:51.199Z,60.21
2018-03-03T17:02:18.960Z,64.12
2018-03-03T17:04:46.525Z,64.06
2018-03-03T17:07:14.084Z,60.66
2018-03-03T17:09:41.826Z,63.19
2018-03-03T17:12:09.410Z,64.98
2018-03-03T17:14:37.003Z,59.46
2018-03-03T17:17:04.734Z,58.30
2018-03-03T17:19:32.282Z,61.42
2018-03-03T17:21:59.856Z,57.79
2018-03-03T17:24:28.310Z,58.16
2018-03-03T17:26:55.856Z,58.14
2018-03-03T17:29:23.420Z,56.56
2018-03-03T17:31:51.734Z,60.12
2018-03-03T17:34:19.267Z,60.54
2018-03-03T17:36:46.868Z,57.58
2018-03-03T17:39:14.555Z,54.65
2018-03-03T17:41:42.101Z,59.41
2018-03-03T17:44:09.654Z,55.68
2018-03-03T17:46:37.256Z,55.85
2018-03-03T17:49:04.842Z,57.05
2018-03-03T17:51:32.421Z,55.02
2018-03-03T17:53:59.996Z,58.39
2018-03-03T17:56:27.539Z,56.19
2018-03-03T17:58:55.097Z,56.17
2018-03-03T18:01:22.856Z,55.15
2018-03-03T18:03:50.421Z,55.51
2018-03-03T18:06:18.048Z,57.36
2018-03-03T18:08:45.597Z,57.79
2018-03-03T18:11:15.144Z,54.98
2018-03-03T18:13:42.765Z,56.10
2018-03-03T18:16:10.312Z,57.60
2018-03-03T18:18:37.857Z,58.54
2018-03-03T18:21:05.440Z,56.13
2018-03-03T18:23:32.987Z,55.03
2018-03-03T18:26:00.546Z,57.22
2018-03-03T18:28:28.269Z,55.04
2018-03-03T18:30:55.829Z,52.92
2018-03-03T18:33:23.373Z,55.63
2018-03-03T18:35:51.105Z,53.94
2018-03-03T18:38:18.640Z,53.59
2018-03-03T18:40:46.181Z,51.37
2018-03-03T18:43:14.072Z,51.29
2018-03-03T18:45:41.623Z,51.65
2018-03-03T18:48:09.219Z,51.01
2018-03-03T18:50:36.806Z,51.39
2018-03-03T18:53:04.374Z,53.00
2018-03-03T18:55:31.940Z,53.77
2018-03-03T18:57:59.549Z,53.20
2018-03-03T19:00:27.295Z,53.22
2018-03-03T19:02:54.851Z,54.65
2018-03-03T19:05:22.448Z,54.95
2018-03-03T19:07:50.022Z,53.40
2018-03-03T19:10:17.626Z,51.80
2018-03-03T19:12:45.203Z,55.17
2018-03-03T19:15:12.810Z,53.90
2018-03-03T19:17:40.359Z,55.44
2018-03-03T19:20:07.956Z,56.49
2018-03-03T19:22:35.532Z,59.07
2018-03-03T19:25:03.079Z,57.25
2018-03-03T19:27:31.001Z,58.23
2018-03-03T19:29:58.586Z,60.11
2018-03-03T19:32:26.151Z,62.97
2018-03-03T19:34:54.068Z,63.46
2018-03-03T19:37:21.622Z,63.41
2018-03-03T19:39:49.303Z,64.35
2018-03-03T19:42:16.914Z,63.76
2018-03-03T19:44:44.491Z,65.12
2018-03-03T19:47:12.059Z,67.62
2018-03-03T19:49:39.684Z,70.05
2018-03-03T19:52:07.302Z,69.65
2018-03-03T19:54:34.864Z,70.88
2018-03-03T19:57:02.603Z,72.79
2018-03-03T19:59:30.162Z,73.83
2018-03-03T20:01:57.726Z,75.64
2018-03-03T20:04:25.458Z,75.50
2018-03-03T20:06:53.045Z,75.99
2018-03-03T20:09:20.654Z,78.08
2018-03-03T20:11:48.504Z,78.34
2018-03-03T20:14:16.134Z,78.87
2018-03-03T20:16:43.719Z,80.17
2018-03-03T20:19:11.468Z,80.22
2018-03-03T20:21:39.553Z,80.00
2018-03-03T20:24:07.138Z,80.82
2018-03-03T20:29:01.567Z,82.79
2018-03-03T20:31:29.105Z,82.84
2018-03-03T20:33:56.847Z,82.54
2018-03-03T20:36:24.415Z,82.57
2018-03-03T20:38:51.964Z,83.47
2018-03-03T20:41:19.559Z,83.75
2018-03-03T20:43:47.106Z,82.68
2018-03-03T20:46:14.683Z,82.39
2018-03-03T20:48:42.391Z,82.85
2018-03-03T20:51:09.942Z,83.37
2018-03-03T20:53:37.543Z,83.41
2018-03-03T20:56:05.183Z,83.86
2018-03-03T20:58:32.764Z,84.71
2018-03-03T21:01:00.310Z,84.23
2018-03-03T21:03:28.148Z,82.25
2018-03-03T21:05:55.733Z,83.16
2018-03-03T21:08:23.338Z,82.97
2018-03-03T21:10:50.951Z,83.09
2018-03-03T21:13:18.524Z,82.75
2018-03-03T21:15:46.061Z,83.71
2018-03-03T21:18:13.655Z,83.38
2018-03-03T21:20:41.205Z,82.99
2018-03-03T21:23:08.761Z,83.42
2018-03-03T21:25:36.502Z,83.75
2018-03-03T21:28:04.095Z,83.19
2018-03-03T21:30:31.713Z,83.19
2018-03-03T21:32:59.303Z,83.25
2018-03-03T21:35:26.854Z,83.90
2018-03-03T21:37:54.422Z,83.77
2018-03-03T21:40:22.012Z,83.79
2018-03-03T21:42:49.620Z,83.17
2018-03-03T21:45:17.167Z,83.13
2018-03-03T21:47:44.902Z,84.09
2018-03-03T21:50:12.463Z,84.21
2018-03-03T21:52:40.038Z,84.90
2018-03-03T21:55:07.634Z,84.70
2018-03-03T21:57:35.200Z,84.52
2018-03-03T22:00:02.756Z,84.86
2018-03-03T22:02:30.354Z,85.10
2018-03-03T22:04:57.899Z,85.40
2018-03-03T22:07:25.468Z,85.99
2018-03-03T22:09:53.081Z,85.66
2018-03-03T22:12:20.634Z,85.26
2018-03-03T22:14:48.202Z,85.45
2018-03-03T22:17:15.942Z,85.68
2018-03-03T22:19:43.497Z,86.50
2018-03-03T22:22:11.047Z,86.08
2018-03-03T22:24:38.774Z,86.48
2018-03-03T22:27:06.327Z,85.98
2018-03-03T22:29:33.873Z,86.01
2018-03-03T22:32:01.555Z,85.96
2018-03-03T22:34:29.109Z,85.76
2018-03-03T22:36:56.655Z,86.07
2018-03-03T22:39:24.224Z,86.15
2018-03-03T22:41:51.780Z,86.21
2018-03-03T22:44:19.331Z,86.16
2018-03-03T22:46:46.917Z,85.67
2018-03-03T22:49:14.484Z,85.82
2018-03-03T22:51:42.059Z,85.63
2018-03-03T22:54:09.635Z,85.89
2018-03-03T22:56:37.186Z,86.38
2018-03-03T22:59:04.769Z,86.30
2018-03-03T23:01:32.433Z,86.09
2018-03-03T23:03:59.977Z,85.94
2018-03-03T23:06:27.522Z,86.45
2018-03-03T23:08:55.075Z,86.64
2018-03-03T23:11:22.631Z,86.96
2018-03-03T23:13:50.488Z,86.80
2018-03-03T23:16:18.034Z,86.62
2018-03-03T23:18:45.588Z,86.80
2018-03-03T23:21:13.537Z,87.14
2018-03-03T23:23:41.077Z,87.48
2018-03-03T23:26:08.631Z,87.21
2018-03-03T23:28:36.191Z,87.51
2018-03-03T23:31:03.798Z,87.71
2018-03-03T23:33:31.305Z,87.81
2018-03-03T23:35:58.876Z,88.08
2018-03-03T23:38:26.413Z,88.21
2018-03-03T23:40:53.965Z,87.81
2018-03-03T23:43:21.549Z,87.36
2018-03-03T23:45:49.095Z,87.75
2018-03-03T23:48:16.644Z,87.90
2018-03-03T23:50:44.236Z,87.71
2018-03-03T23:53:11.810Z,87.78
2018-03-03T23:55:39.358Z,87.79
2018-03-03T23:58:06.942Z,87.83
